sensor_id;sensor_type;location;lat;lon;timestamp;P1;durP1;ratioP1;P2;durP2;ratioP2
9938;SDS011;5008;50.656;7.188;2023-02-25T05:01:47;7.83;;;2.07;;
9938;SDS011;5008;50.656;7.188;2023-02-25T05:04:14;8.27;;;2.67;;
9938;SDS011;5008;50.656;7.188;2023-02-25T05:06:41;10.10;;;2.70;;
9938;SDS011;5008;50.656;7.188;2023-02-25T05:09:07;9.57;;;2.90;;
9938;SDS011;5008;50.656;7.188;2023-02-25T05:11:38;9.83;;;2.17;;
9938;SDS011;5008;50.656;7.188;2023-02-25T05:14:05;8.47;;;3.30;;
9938;SDS011;5008;50.656;7.188;2023-02-25T05:16:32;6.17;;;2.57;;
9938;SDS011;5008;50.656;7.188;2023-02-25T05:19:00;10.50;;;2.60;;
9938;SDS011;5008;50.656;7.188;2023-02-25T05:21:27;6.73;;;2.27;;
9938;SDS011;5008;50.656;7.188;2023-02-25T05:23:54;5.23;;;2.00;;
9938;SDS011;5008;50.656;7.188;2023-02-25T05:26:22;10.67;;;2.63;;
9938;SDS011;5008;50.656;7.188;2023-02-25T05:28:49;13.17;;;2.80;;
9938;SDS011;5008;50.656;7.188;2023-02-25T05:31:17;8.80;;;2.23;;
9938;SDS011;5008;50.656;7.188;2023-02-25T05:33:45;7.03;;;1.87;;
9938;SDS011;5008;50.656;7.188;2023-02-25T05:36:14;7.43;;;2.43;;
9938;SDS011;5008;50.656;7.188;2023-02-25T05:38:41;9.53;;;2.30;;
9938;SDS011;5008;50.656;7.188;2023-02-25T05:41:09;6.43;;;2.17;;
9938;SDS011;5008;50.656;7.188;2023-02-25T05:43:38;8.43;;;2.30;;
9938;SDS011;5008;50.656;7.188;2023-02-25T05:46:06;6.90;;;2.23;;
9938;SDS011;5008;50.656;7.188;2023-02-25T05:48:35;7.13;;;2.67;;
9938;SDS011;5008;50.656;7.188;2023-02-25T05:51:04;5.17;;;1.80;;
9938;SDS011;5008;50.656;7.188;2023-02-25T05:53:33;7.27;;;2.50;;
9938;SDS011;5008;50.656;7.188;2023-02-25T05:56:02;10.57;;;2.47;;
9938;SDS011;5008;50.656;7.188;2023-02-25T05:59:09;7.07;;;2.50;;
9938;SDS011;5008;50.656;7.188;2023-02-25T06:02:15;4.67;;;2.60;;
9938;SDS011;5008;50.656;7.188;2023-02-25T06:04:43;8.70;;;2.30;;
9938;SDS011;5008;50.656;7.188;2023-02-25T06:07:12;9.30;;;2.60;;
9938;SDS011;5008;50.656;7.188;2023-02-25T06:09:41;6.40;;;2.13;;
9938;SDS011;5008;50.656;7.188;2023-02-25T06:12:08;9.47;;;2.50;;
9938;SDS011;5008;50.656;7.188;2023-02-25T06:14:42;7.77;;;2.63;;
9938;SDS011;5008;50.656;7.188;2023-02-25T06:17:09;3.97;;;1.93;;
9938;SDS011;5008;50.656;7.188;2023-02-25T06:19:37;6.77;;;2.17;;
9938;SDS011;5008;50.656;7.188;2023-02-25T06:22:05;9.70;;;2.20;;
9938;SDS011;5008;50.656;7.188;2023-02-25T06:24:32;5.10;;;2.23;;
9938;SDS011;5008;50.656;7.188;2023-02-25T06:27:00;8.43;;;2.33;;
9938;SDS011;5008;50.656;7.188;2023-02-25T06:29:27;5.83;;;2.13;;
9938;SDS011;5008;50.656;7.188;2023-02-25T06:31:54;10.83;;;2.60;;
9938;SDS011;5008;50.656;7.188;2023-02-25T06:34:22;8.67;;;2.20;;
9938;SDS011;5008;50.656;7.188;2023-02-25T06:36:49;12.33;;;2.70;;
9938;SDS011;5008;50.656;7.188;2023-02-25T06:39:16;8.17;;;2.40;;
9938;SDS011;5008;50.656;7.188;2023-02-25T06:41:42;7.53;;;2.10;;
9938;SDS011;5008;50.656;7.188;2023-02-25T06:44:11;11.33;;;2.60;;
9938;SDS011;5008;50.656;7.188;2023-02-25T06:46:37;10.63;;;2.87;;
9938;SDS011;5008;50.656;7.188;2023-02-25T06:49:04;9.20;;;2.85;;
9938;SDS011;5008;50.656;7.188;2023-02-25T06:51:31;7.87;;;2.37;;
9938;SDS011;5008;50.656;7.188;2023-02-25T06:53:58;8.47;;;2.37;;
9938;SDS011;5008;50.656;7.188;2023-02-25T06:56:27;6.23;;;2.80;;
9938;SDS011;5008;50.656;7.188;2023-02-25T06:58:54;6.33;;;2.40;;
9938;SDS011;5008;50.656;7.188;2023-02-25T07:01:24;7.70;;;3.10;;
9938;SDS011;5008;50.656;7.188;2023-02-25T07:03:51;11.37;;;3.87;;
9938;SDS011;5008;50.656;7.188;2023-02-25T07:06:18;11.73;;;2.47;;
9938;SDS011;5008;50.656;7.188;2023-02-25T07:08:45;6.60;;;2.60;;
9938;SDS011;5008;50.656;7.188;2023-02-25T07:11:12;8.50;;;2.80;;
9938;SDS011;5008;50.656;7.188;2023-02-25T07:13:51;9.07;;;2.93;;
9938;SDS011;5008;50.656;7.188;2023-02-25T07:16:17;8.60;;;2.20;;
9938;SDS011;5008;50.656;7.188;2023-02-25T07:18:46;6.13;;;2.23;;
9938;SDS011;5008;50.656;7.188;2023-02-25T07:21:13;10.07;;;2.33;;
9938;SDS011;5008;50.656;7.188;2023-02-25T07:23:40;9.23;;;2.87;;
9938;SDS011;5008;50.656;7.188;2023-02-25T07:26:09;6.93;;;2.60;;
9938;SDS011;5008;50.656;7.188;2023-02-25T07:28:36;7.03;;;2.57;;
9938;SDS011;5008;50.656;7.188;2023-02-25T07:31:08;7.27;;;2.40;;
9938;SDS011;5008;50.656;7.188;2023-02-25T07:33:39;8.90;;;2.33;;
9938;SDS011;5008;50.656;7.188;2023-02-25T07:36:07;7.77;;;2.40;;
9938;SDS011;5008;50.656;7.188;2023-02-25T07:38:35;10.93;;;3.10;;
9938;SDS011;5008;50.656;7.188;2023-02-25T07:41:03;10.33;;;3.13;;
9938;SDS011;5008;50.656;7.188;2023-02-25T07:43:30;6.07;;;2.57;;
9938;SDS011;5008;50.656;7.188;2023-02-25T07:45:57;12.47;;;2.53;;
9938;SDS011;5008;50.656;7.188;2023-02-25T07:48:24;10.30;;;2.60;;
9938;SDS011;5008;50.656;7.188;2023-02-25T07:50:51;8.53;;;3.23;;
9938;SDS011;5008;50.656;7.188;2023-02-25T07:53:19;7.60;;;2.30;;
9938;SDS011;5008;50.656;7.188;2023-02-25T07:55:46;5.17;;;2.17;;
9938;SDS011;5008;50.656;7.188;2023-02-25T07:58:16;11.33;;;2.60;;
9938;SDS011;5008;50.656;7.188;2023-02-25T08:00:46;6.93;;;2.20;;
9938;SDS011;5008;50.656;7.188;2023-02-25T08:03:12;12.07;;;2.93;;
9938;SDS011;5008;50.656;7.188;2023-02-25T08:05:39;6.53;;;3.20;;
9938;SDS011;5008;50.656;7.188;2023-02-25T08:08:06;6.77;;;2.43;;
9938;SDS011;5008;50.656;7.188;2023-02-25T08:10:35;8.33;;;3.00;;
9938;SDS011;5008;50.656;7.188;2023-02-25T08:13:02;7.67;;;2.90;;
9938;SDS011;5008;50.656;7.188;2023-02-25T08:15:28;8.30;;;2.57;;
9938;SDS011;5008;50.656;7.188;2023-02-25T08:17:56;7.00;;;2.60;;
9938;SDS011;5008;50.656;7.188;2023-02-25T08:20:22;8.27;;;2.50;;
9938;SDS011;5008;50.656;7.188;2023-02-25T08:22:49;9.27;;;2.37;;
9938;SDS011;5008;50.656;7.188;2023-02-25T08:25:16;8.80;;;2.50;;
9938;SDS011;5008;50.656;7.188;2023-02-25T08:27:44;6.87;;;3.20;;
9938;SDS011;5008;50.656;7.188;2023-02-25T08:30:11;7.50;;;2.67;;
9938;SDS011;5008;50.656;7.188;2023-02-25T08:32:39;10.60;;;3.00;;
9938;SDS011;5008;50.656;7.188;2023-02-25T08:35:07;9.17;;;2.67;;
9938;SDS011;5008;50.656;7.188;2023-02-25T08:37:34;6.63;;;2.60;;
9938;SDS011;5008;50.656;7.188;2023-02-25T08:40:01;7.57;;;2.47;;
9938;SDS011;5008;50.656;7.188;2023-02-25T08:42:31;10.87;;;3.00;;
9938;SDS011;5008;50.656;7.188;2023-02-25T08:44:59;8.53;;;3.00;;
9938;SDS011;5008;50.656;7.188;2023-02-25T08:47:26;9.93;;;2.70;;
9938;SDS011;5008;50.656;7.188;2023-02-25T08:49:53;8.00;;;3.07;;
9938;SDS011;5008;50.656;7.188;2023-02-25T08:52:19;7.37;;;2.43;;
9938;SDS011;5008;50.656;7.188;2023-02-25T08:54:46;10.27;;;2.70;;
9938;SDS011;5008;50.656;7.188;2023-02-25T08:57:13;11.80;;;3.10;;
9938;SDS011;5008;50.656;7.188;2023-02-25T08:59:40;8.73;;;3.37;;
9938;SDS011;5008;50.656;7.188;2023-02-25T09:02:10;5.60;;;2.63;;
9938;SDS011;5008;50.656;7.188;2023-02-25T09:04:39;9.33;;;2.73;;
9938;SDS011;5008;50.656;7.188;2023-02-25T09:07:06;10.47;;;3.10;;
9938;SDS011;5008;50.656;7.188;2023-02-25T09:09:33;11.27;;;3.80;;
9938;SDS011;5008;50.656;7.188;2023-02-25T09:11:59;11.53;;;3.07;;
9938;SDS011;5008;50.656;7.188;2023-02-25T09:14:29;9.13;;;2.90;;
9938;SDS011;5008;50.656;7.188;2023-02-25T09:16:56;7.80;;;2.80;;
9938;SDS011;5008;50.656;7.188;2023-02-25T09:19:24;8.83;;;3.13;;
9938;SDS011;5008;50.656;7.188;2023-02-25T09:21:51;6.07;;;2.40;;
9938;SDS011;5008;50.656;7.188;2023-02-25T09:24:17;12.10;;;3.70;;
9938;SDS011;5008;50.656;7.188;2023-02-25T09:26:44;10.30;;;3.30;;
9938;SDS011;5008;50.656;7.188;2023-02-25T09:29:11;7.10;;;2.83;;
9938;SDS011;5008;50.656;7.188;2023-02-25T09:31:38;8.20;;;3.40;;
9938;SDS011;5008;50.656;7.188;2023-02-25T09:34:06;10.37;;;3.60;;
9938;SDS011;5008;50.656;7.188;2023-02-25T09:36:35;14.27;;;3.70;;
9938;SDS011;5008;50.656;7.188;2023-02-25T09:39:02;10.07;;;2.97;;
9938;SDS011;5008;50.656;7.188;2023-02-25T09:41:34;10.53;;;3.00;;
9938;SDS011;5008;50.656;7.188;2023-02-25T09:44:09;13.57;;;3.40;;
9938;SDS011;5008;50.656;7.188;2023-02-25T09:46:39;8.00;;;3.13;;
9938;SDS011;5008;50.656;7.188;2023-02-25T09:49:11;11.47;;;3.50;;
9938;SDS011;5008;50.656;7.188;2023-02-25T09:51:46;11.30;;;3.90;;
9938;SDS011;5008;50.656;7.188;2023-02-25T09:54:19;8.73;;;3.60;;
9938;SDS011;5008;50.656;7.188;2023-02-25T09:56:50;7.70;;;3.37;;
9938;SDS011;5008;50.656;7.188;2023-02-25T09:59:19;10.63;;;3.60;;
9938;SDS011;5008;50.656;7.188;2023-02-25T10:01:48;9.73;;;3.60;;
9938;SDS011;5008;50.656;7.188;2023-02-25T10:04:21;12.23;;;4.03;;
9938;SDS011;5008;50.656;7.188;2023-02-25T10:06:56;9.50;;;4.00;;
9938;SDS011;5008;50.656;7.188;2023-02-25T10:09:29;9.73;;;3.93;;
9938;SDS011;5008;50.656;7.188;2023-02-25T10:12:04;9.80;;;3.60;;
9938;SDS011;5008;50.656;7.188;2023-02-25T10:14:42;7.93;;;3.40;;
9938;SDS011;5008;50.656;7.188;2023-02-25T10:17:21;10.27;;;4.60;;
9938;SDS011;5008;50.656;7.188;2023-02-25T10:20:00;10.07;;;3.70;;
9938;SDS011;5008;50.656;7.188;2023-02-25T10:22:44;7.30;;;3.77;;
9938;SDS011;5008;50.656;7.188;2023-02-25T10:25:16;9.10;;;3.57;;
9938;SDS011;5008;50.656;7.188;2023-02-25T10:27:48;7.70;;;3.60;;
9938;SDS011;5008;50.656;7.188;2023-02-25T10:30:21;8.67;;;3.37;;
9938;SDS011;5008;50.656;7.188;2023-02-25T10:32:51;8.90;;;4.37;;
9938;SDS011;5008;50.656;7.188;2023-02-25T10:35:22;7.80;;;3.70;;
9938;SDS011;5008;50.656;7.188;2023-02-25T10:37:54;8.90;;;3.90;;
9938;SDS011;5008;50.656;7.188;2023-02-25T10:40:21;7.30;;;3.90;;
9938;SDS011;5008;50.656;7.188;2023-02-25T10:42:51;8.40;;;3.80;;
9938;SDS011;5008;50.656;7.188;2023-02-25T10:45:21;11.80;;;4.37;;
9938;SDS011;5008;50.656;7.188;2023-02-25T10:47:53;6.70;;;3.90;;
9938;SDS011;5008;50.656;7.188;2023-02-25T10:50:31;10.17;;;5.27;;
9938;SDS011;5008;50.656;7.188;2023-02-25T10:53:01;6.83;;;4.17;;
9938;SDS011;5008;50.656;7.188;2023-02-25T10:55:32;9.97;;;5.57;;
9938;SDS011;5008;50.656;7.188;2023-02-25T10:58:05;7.87;;;5.17;;
9938;SDS011;5008;50.656;7.188;2023-02-25T11:00:56;7.70;;;4.83;;
9938;SDS011;5008;50.656;7.188;2023-02-25T11:03:25;7.70;;;5.50;;
9938;SDS011;5008;50.656;7.188;2023-02-25T11:06:06;6.83;;;4.93;;
9938;SDS011;5008;50.656;7.188;2023-02-25T11:08:36;10.33;;;5.50;;
9938;SDS011;5008;50.656;7.188;2023-02-25T11:11:04;10.47;;;5.20;;
9938;SDS011;5008;50.656;7.188;2023-02-25T11:13:38;11.80;;;6.27;;
9938;SDS011;5008;50.656;7.188;2023-02-25T11:16:06;13.23;;;6.10;;
9938;SDS011;5008;50.656;7.188;2023-02-25T11:18:34;6.93;;;5.37;;
9938;SDS011;5008;50.656;7.188;2023-02-25T11:21:04;11.90;;;6.50;;
9938;SDS011;5008;50.656;7.188;2023-02-25T11:23:33;7.87;;;5.30;;
9938;SDS011;5008;50.656;7.188;2023-02-25T11:26:04;8.70;;;5.80;;
9938;SDS011;5008;50.656;7.188;2023-02-25T11:28:35;9.77;;;5.57;;
9938;SDS011;5008;50.656;7.188;2023-02-25T11:31:06;7.60;;;6.07;;
9938;SDS011;5008;50.656;7.188;2023-02-25T11:33:39;10.37;;;6.00;;
9938;SDS011;5008;50.656;7.188;2023-02-25T11:36:09;9.90;;;6.03;;
9938;SDS011;5008;50.656;7.188;2023-02-25T11:38:39;9.77;;;5.10;;
9938;SDS011;5008;50.656;7.188;2023-02-25T11:41:13;7.70;;;5.23;;
9938;SDS011;5008;50.656;7.188;2023-02-25T11:43:46;9.00;;;5.47;;
9938;SDS011;5008;50.656;7.188;2023-02-25T11:46:16;10.87;;;6.43;;
9938;SDS011;5008;50.656;7.188;2023-02-25T11:48:47;8.37;;;5.90;;
9938;SDS011;5008;50.656;7.188;2023-02-25T11:51:20;9.23;;;6.67;;
9938;SDS011;5008;50.656;7.188;2023-02-25T11:53:58;6.50;;;3.80;;
9938;SDS011;5008;50.656;7.188;2023-02-25T11:56:43;3.50;;;3.20;;
9938;SDS011;5008;50.656;7.188;2023-02-25T12:02:18;4.43;;;2.90;;
9938;SDS011;5008;50.656;7.188;2023-02-25T12:04:56;4.20;;;2.87;;
9938;SDS011;5008;50.656;7.188;2023-02-25T12:14:11;3.20;;;1.93;;
9938;SDS011;5008;50.656;7.188;2023-02-25T12:20:04;4.23;;;2.30;;
9938;SDS011;5008;50.656;7.188;2023-02-25T12:23:20;4.20;;;2.10;;
9938;SDS011;5008;50.656;7.188;2023-02-25T12:26:12;2.37;;;1.53;;
9938;SDS011;5008;50.656;7.188;2023-02-25T12:29:04;4.70;;;2.30;;
9938;SDS011;5008;50.656;7.188;2023-02-25T12:31:49;4.50;;;2.40;;
9938;SDS011;5008;50.656;7.188;2023-02-25T12:34:35;5.03;;;2.60;;
9938;SDS011;5008;50.656;7.188;2023-02-25T12:37:31;4.23;;;2.27;;
9938;SDS011;5008;50.656;7.188;2023-02-25T12:40:12;3.33;;;2.73;;
9938;SDS011;5008;50.656;7.188;2023-02-25T12:42:48;2.47;;;2.27;;
9938;SDS011;5008;50.656;7.188;2023-02-25T12:45:45;3.17;;;2.47;;
9938;SDS011;5008;50.656;7.188;2023-02-25T12:48:40;4.33;;;2.67;;
9938;SDS011;5008;50.656;7.188;2023-02-25T12:54:30;3.33;;;2.70;;
9938;SDS011;5008;50.656;7.188;2023-02-25T12:57:18;3.23;;;2.27;;
9938;SDS011;5008;50.656;7.188;2023-02-25T13:00:00;3.50;;;2.60;;
9938;SDS011;5008;50.656;7.188;2023-02-25T13:02:52;3.20;;;2.47;;
9938;SDS011;5008;50.656;7.188;2023-02-25T13:08:44;2.27;;;2.00;;
9938;SDS011;5008;50.656;7.188;2023-02-25T13:11:22;4.10;;;2.30;;
9938;SDS011;5008;50.656;7.188;2023-02-25T13:13:59;1.90;;;1.80;;
9938;SDS011;5008;50.656;7.188;2023-02-25T13:16:45;2.47;;;2.20;;
9938;SDS011;5008;50.656;7.188;2023-02-25T13:19:27;2.60;;;1.90;;
9938;SDS011;5008;50.656;7.188;2023-02-25T13:22:21;2.57;;;2.30;;
9938;SDS011;5008;50.656;7.188;2023-02-25T13:25:03;3.70;;;2.27;;
9938;SDS011;5008;50.656;7.188;2023-02-25T13:27:41;2.20;;;2.00;;
9938;SDS011;5008;50.656;7.188;2023-02-25T13:30:37;2.30;;;1.70;;
9938;SDS011;5008;50.656;7.188;2023-02-25T13:33:19;4.50;;;1.80;;
9938;SDS011;5008;50.656;7.188;2023-02-25T13:36:07;2.97;;;1.80;;
9938;SDS011;5008;50.656;7.188;2023-02-25T13:38:57;3.80;;;1.87;;
9938;SDS011;5008;50.656;7.188;2023-02-25T13:41:42;1.87;;;1.20;;
9938;SDS011;5008;50.656;7.188;2023-02-25T13:44:46;1.90;;;1.40;;
9938;SDS011;5008;50.656;7.188;2023-02-25T13:47:45;2.17;;;1.67;;
9938;SDS011;5008;50.656;7.188;2023-02-25T13:50:32;2.30;;;1.60;;
9938;SDS011;5008;50.656;7.188;2023-02-25T13:53:24;2.47;;;1.67;;
9938;SDS011;5008;50.656;7.188;2023-02-25T13:56:07;2.30;;;1.50;;
9938;SDS011;5008;50.656;7.188;2023-02-25T13:58:48;2.53;;;2.10;;
9938;SDS011;5008;50.656;7.188;2023-02-25T14:01:28;2.20;;;1.30;;
9938;SDS011;5008;50.656;7.188;2023-02-25T14:10:20;4.13;;;1.92;;
9938;SDS011;5008;50.656;7.188;2023-02-25T14:13:05;1.50;;;1.23;;
9938;SDS011;5008;50.656;7.188;2023-02-25T14:15:54;2.67;;;1.47;;
9938;SDS011;5008;50.656;7.188;2023-02-25T14:18:36;3.97;;;2.10;;
9938;SDS011;5008;50.656;7.188;2023-02-25T14:21:26;5.53;;;1.90;;
9938;SDS011;5008;50.656;7.188;2023-02-25T14:24:11;2.47;;;1.65;;
9938;SDS011;5008;50.656;7.188;2023-02-25T14:26:45;4.13;;;1.83;;
9938;SDS011;5008;50.656;7.188;2023-02-25T14:29:22;2.67;;;1.55;;
9938;SDS011;5008;50.656;7.188;2023-02-25T14:32:01;7.70;;;1.67;;
9938;SDS011;5008;50.656;7.188;2023-02-25T14:34:45;2.95;;;1.55;;
9938;SDS011;5008;50.656;7.188;2023-02-25T14:37:24;4.28;;;1.90;;
9938;SDS011;5008;50.656;7.188;2023-02-25T14:40:11;3.55;;;2.00;;
9938;SDS011;5008;50.656;7.188;2023-02-25T14:42:50;3.10;;;1.50;;
9938;SDS011;5008;50.656;7.188;2023-02-25T14:45:35;3.22;;;1.90;;
9938;SDS011;5008;50.656;7.188;2023-02-25T14:48:05;5.88;;;1.70;;
9938;SDS011;5008;50.656;7.188;2023-02-25T14:50:39;2.97;;;2.30;;
9938;SDS011;5008;50.656;7.188;2023-02-25T14:53:16;3.05;;;1.63;;
9938;SDS011;5008;50.656;7.188;2023-02-25T14:55:57;2.70;;;1.85;;
9938;SDS011;5008;50.656;7.188;2023-02-25T14:58:48;5.72;;;2.15;;
9938;SDS011;5008;50.656;7.188;2023-02-25T15:01:40;3.80;;;2.03;;
9938;SDS011;5008;50.656;7.188;2023-02-25T15:04:18;3.75;;;1.88;;
9938;SDS011;5008;50.656;7.188;2023-02-25T15:07:07;4.20;;;2.25;;
9938;SDS011;5008;50.656;7.188;2023-02-25T15:12:53;2.83;;;2.40;;
9938;SDS011;5008;50.656;7.188;2023-02-25T15:15:35;3.17;;;1.83;;
9938;SDS011;5008;50.656;7.188;2023-02-25T15:21:37;3.57;;;2.20;;
9938;SDS011;5008;50.656;7.188;2023-02-25T15:24:08;2.83;;;1.90;;
9938;SDS011;5008;50.656;7.188;2023-02-25T15:26:40;1.67;;;1.43;;
9938;SDS011;5008;50.656;7.188;2023-02-25T15:29:17;4.33;;;2.47;;
9938;SDS011;5008;50.656;7.188;2023-02-25T15:32:07;2.93;;;1.90;;
9938;SDS011;5008;50.656;7.188;2023-02-25T15:34:38;3.07;;;1.57;;
9938;SDS011;5008;50.656;7.188;2023-02-25T15:37:22;7.10;;;2.90;;
9938;SDS011;5008;50.656;7.188;2023-02-25T15:39:52;5.20;;;1.90;;
9938;SDS011;5008;50.656;7.188;2023-02-25T15:42:40;3.57;;;2.07;;
9938;SDS011;5008;50.656;7.188;2023-02-25T15:48:29;4.50;;;2.17;;
9938;SDS011;5008;50.656;7.188;2023-02-25T15:51:00;2.50;;;1.77;;
9938;SDS011;5008;50.656;7.188;2023-02-25T15:53:46;4.40;;;2.00;;
9938;SDS011;5008;50.656;7.188;2023-02-25T16:05:04;1.63;;;1.43;;
9938;SDS011;5008;50.656;7.188;2023-02-25T16:07:45;2.90;;;1.70;;
9938;SDS011;5008;50.656;7.188;2023-02-25T16:10:20;3.23;;;1.60;;
9938;SDS011;5008;50.656;7.188;2023-02-25T16:12:52;2.03;;;1.30;;
9938;SDS011;5008;50.656;7.188;2023-02-25T16:15:24;3.73;;;1.40;;
9938;SDS011;5008;50.656;7.188;2023-02-25T16:17:52;3.83;;;1.20;;
9938;SDS011;5008;50.656;7.188;2023-02-25T16:20:23;3.53;;;1.30;;
9938;SDS011;5008;50.656;7.188;2023-02-25T16:22:56;3.40;;;2.07;;
9938;SDS011;5008;50.656;7.188;2023-02-25T16:25:32;2.10;;;0.93;;
9938;SDS011;5008;50.656;7.188;2023-02-25T16:28:08;2.43;;;0.77;;
9938;SDS011;5008;50.656;7.188;2023-02-25T16:30:43;2.27;;;1.10;;
9938;SDS011;5008;50.656;7.188;2023-02-25T16:33:17;1.40;;;1.30;;
9938;SDS011;5008;50.656;7.188;2023-02-25T16:35:50;1.70;;;0.90;;
9938;SDS011;5008;50.656;7.188;2023-02-25T16:38:32;1.60;;;1.33;;
9938;SDS011;5008;50.656;7.188;2023-02-25T16:41:08;3.03;;;1.50;;
9938;SDS011;5008;50.656;7.188;2023-02-25T16:43:38;2.60;;;1.30;;
9938;SDS011;5008;50.656;7.188;2023-02-25T16:46:10;3.70;;;1.67;;
9938;SDS011;5008;50.656;7.188;2023-02-25T16:48:44;1.97;;;1.50;;
9938;SDS011;5008;50.656;7.188;2023-02-25T16:51:18;1.13;;;0.90;;
9938;SDS011;5008;50.656;7.188;2023-02-25T16:53:50;1.87;;;1.20;;
9938;SDS011;5008;50.656;7.188;2023-02-25T16:56:22;2.40;;;1.30;;
9938;SDS011;5008;50.656;7.188;2023-02-25T16:59:03;2.37;;;1.23;;
9938;SDS011;5008;50.656;7.188;2023-02-25T17:01:32;1.17;;;0.77;;
9938;SDS011;5008;50.656;7.188;2023-02-25T17:04:14;2.20;;;1.57;;
9938;SDS011;5008;50.656;7.188;2023-02-25T17:06:48;2.73;;;1.83;;
9938;SDS011;5008;50.656;7.188;2023-02-25T17:09:36;2.90;;;1.50;;
9938;SDS011;5008;50.656;7.188;2023-02-25T17:12:09;2.23;;;1.60;;
9938;SDS011;5008;50.656;7.188;2023-02-25T17:14:41;3.10;;;1.60;;
9938;SDS011;5008;50.656;7.188;2023-02-25T17:17:13;2.47;;;2.23;;
9938;SDS011;5008;50.656;7.188;2023-02-25T17:19:42;2.83;;;2.27;;
9938;SDS011;5008;50.656;7.188;2023-02-25T17:22:09;4.37;;;2.20;;
9938;SDS011;5008;50.656;7.188;2023-02-25T17:24:37;2.97;;;1.77;;
9938;SDS011;5008;50.656;7.188;2023-02-25T17:27:04;1.93;;;1.60;;
9938;SDS011;5008;50.656;7.188;2023-02-25T17:29:36;3.07;;;2.33;;
9938;SDS011;5008;50.656;7.188;2023-02-25T17:32:10;4.03;;;2.30;;
9938;SDS011;5008;50.656;7.188;2023-02-25T17:34:43;2.63;;;1.60;;
9938;SDS011;5008;50.656;7.188;2023-02-25T17:37:12;2.07;;;1.53;;
9938;SDS011;5008;50.656;7.188;2023-02-25T17:39:42;2.90;;;1.80;;
9938;SDS011;5008;50.656;7.188;2023-02-25T17:42:26;2.90;;;2.60;;
9938;SDS011;5008;50.656;7.188;2023-02-25T17:44:54;2.93;;;2.10;;
9938;SDS011;5008;50.656;7.188;2023-02-25T17:47:22;3.57;;;2.13;;
9938;SDS011;5008;50.656;7.188;2023-02-25T17:49:51;2.33;;;1.93;;
9938;SDS011;5008;50.656;7.188;2023-02-25T17:52:20;2.83;;;1.67;;
9938;SDS011;5008;50.656;7.188;2023-02-25T17:57:26;6.77;;;1.67;;
9938;SDS011;5008;50.656;7.188;2023-02-25T17:59:55;2.00;;;1.30;;
9938;SDS011;5008;50.656;7.188;2023-02-25T18:02:28;2.67;;;1.63;;
9938;SDS011;5008;50.656;7.188;2023-02-25T18:05:11;3.80;;;1.73;;
9938;SDS011;5008;50.656;7.188;2023-02-25T18:07:57;1.80;;;1.57;;
9938;SDS011;5008;50.656;7.188;2023-02-25T18:13:22;3.57;;;1.60;;
9938;SDS011;5008;50.656;7.188;2023-02-25T18:22:00;2.53;;;2.10;;
9938;SDS011;5008;50.656;7.188;2023-02-25T18:24:29;2.67;;;1.40;;
9938;SDS011;5008;50.656;7.188;2023-02-25T18:29:48;2.90;;;1.50;;
9938;SDS011;5008;50.656;7.188;2023-02-25T18:32:15;4.53;;;2.10;;
9938;SDS011;5008;50.656;7.188;2023-02-25T18:34:58;2.97;;;1.80;;
9938;SDS011;5008;50.656;7.188;2023-02-25T18:37:25;4.47;;;2.00;;
9938;SDS011;5008;50.656;7.188;2023-02-25T18:39:56;3.73;;;2.43;;
9938;SDS011;5008;50.656;7.188;2023-02-25T18:42:24;3.30;;;2.20;;
9938;SDS011;5008;50.656;7.188;2023-02-25T18:44:51;4.83;;;2.97;;
9938;SDS011;5008;50.656;7.188;2023-02-25T18:47:19;5.37;;;3.50;;
9938;SDS011;5008;50.656;7.188;2023-02-25T18:49:45;4.87;;;3.37;;
9938;SDS011;5008;50.656;7.188;2023-02-25T18:52:15;3.47;;;2.20;;
9938;SDS011;5008;50.656;7.188;2023-02-25T18:54:47;3.77;;;2.57;;
9938;SDS011;5008;50.656;7.188;2023-02-25T18:57:18;4.97;;;2.50;;
9938;SDS011;5008;50.656;7.188;2023-02-25T18:59:49;3.77;;;2.13;;
9938;SDS011;5008;50.656;7.188;2023-02-25T19:02:20;4.67;;;2.70;;
9938;SDS011;5008;50.656;7.188;2023-02-25T19:04:52;3.20;;;1.90;;
9938;SDS011;5008;50.656;7.188;2023-02-25T19:07:20;3.20;;;2.10;;
9938;SDS011;5008;50.656;7.188;2023-02-25T19:09:48;2.97;;;1.83;;
9938;SDS011;5008;50.656;7.188;2023-02-25T19:12:16;4.37;;;2.50;;
9938;SDS011;5008;50.656;7.188;2023-02-25T19:14:51;2.13;;;1.90;;
9938;SDS011;5008;50.656;7.188;2023-02-25T19:17:23;2.57;;;1.80;;
9938;SDS011;5008;50.656;7.188;2023-02-25T19:19:49;4.13;;;2.17;;
9938;SDS011;5008;50.656;7.188;2023-02-25T19:22:17;3.30;;;2.07;;
9938;SDS011;5008;50.656;7.188;2023-02-25T19:24:45;5.53;;;2.57;;
9938;SDS011;5008;50.656;7.188;2023-02-25T19:27:15;5.67;;;3.20;;
9938;SDS011;5008;50.656;7.188;2023-02-25T19:29:45;3.93;;;2.80;;
9938;SDS011;5008;50.656;7.188;2023-02-25T19:32:15;3.10;;;2.10;;
9938;SDS011;5008;50.656;7.188;2023-02-25T19:34:42;3.80;;;1.80;;
9938;SDS011;5008;50.656;7.188;2023-02-25T19:37:09;3.43;;;2.00;;
9938;SDS011;5008;50.656;7.188;2023-02-25T19:39:37;2.63;;;2.20;;
9938;SDS011;5008;50.656;7.188;2023-02-25T19:42:04;2.93;;;1.90;;
9938;SDS011;5008;50.656;7.188;2023-02-25T19:44:32;6.17;;;2.23;;
9938;SDS011;5008;50.656;7.188;2023-02-25T19:47:09;4.10;;;1.70;;
9938;SDS011;5008;50.656;7.188;2023-02-25T19:49:37;2.83;;;1.80;;
9938;SDS011;5008;50.656;7.188;2023-02-25T19:52:04;2.33;;;2.03;;
9938;SDS011;5008;50.656;7.188;2023-02-25T19:54:31;2.80;;;1.67;;
9938;SDS011;5008;50.656;7.188;2023-02-25T19:56:57;4.43;;;2.27;;
9938;SDS011;5008;50.656;7.188;2023-02-25T19:59:27;3.20;;;2.17;;
9938;SDS011;5008;50.656;7.188;2023-02-25T20:01:54;3.70;;;3.10;;
9938;SDS011;5008;50.656;7.188;2023-02-25T20:04:21;4.50;;;4.10;;
9938;SDS011;5008;50.656;7.188;2023-02-25T20:06:49;4.30;;;3.03;;
9938;SDS011;5008;50.656;7.188;2023-02-25T20:09:16;3.93;;;2.57;;
9938;SDS011;5008;50.656;7.188;2023-02-25T20:11:43;4.20;;;2.20;;
9938;SDS011;5008;50.656;7.188;2023-02-25T20:14:12;4.57;;;3.43;;
9938;SDS011;5008;50.656;7.188;2023-02-25T20:16:41;4.83;;;2.40;;
9938;SDS011;5008;50.656;7.188;2023-02-25T20:19:10;5.50;;;2.20;;
9938;SDS011;5008;50.656;7.188;2023-02-25T20:21:37;2.67;;;2.37;;
9938;SDS011;5008;50.656;7.188;2023-02-25T20:24:17;4.77;;;2.10;;
9938;SDS011;5008;50.656;7.188;2023-02-25T20:26:44;3.40;;;2.20;;
9938;SDS011;5008;50.656;7.188;2023-02-25T20:29:11;4.20;;;2.73;;
9938;SDS011;5008;50.656;7.188;2023-02-25T20:31:37;3.43;;;2.60;;
9938;SDS011;5008;50.656;7.188;2023-02-25T20:34:04;4.63;;;2.30;;
9938;SDS011;5008;50.656;7.188;2023-02-25T20:36:37;3.93;;;2.10;;
9938;SDS011;5008;50.656;7.188;2023-02-25T20:39:15;3.23;;;2.77;;
9938;SDS011;5008;50.656;7.188;2023-02-25T20:41:56;4.03;;;2.53;;
9938;SDS011;5008;50.656;7.188;2023-02-25T20:44:23;4.10;;;2.20;;
9938;SDS011;5008;50.656;7.188;2023-02-25T20:46:50;2.90;;;2.23;;
9938;SDS011;5008;50.656;7.188;2023-02-25T20:49:17;3.67;;;2.20;;
9938;SDS011;5008;50.656;7.188;2023-02-25T20:51:45;6.17;;;2.23;;
9938;SDS011;5008;50.656;7.188;2023-02-25T20:54:14;4.20;;;2.23;;
9938;SDS011;5008;50.656;7.188;2023-02-25T20:56:43;5.70;;;2.77;;
9938;SDS011;5008;50.656;7.188;2023-02-25T20:59:11;5.63;;;2.37;;
9938;SDS011;5008;50.656;7.188;2023-02-25T21:01:41;5.07;;;2.63;;
9938;SDS011;5008;50.656;7.188;2023-02-25T21:04:08;4.27;;;2.73;;
9938;SDS011;5008;50.656;7.188;2023-02-25T21:06:36;5.93;;;2.70;;
9938;SDS011;5008;50.656;7.188;2023-02-25T21:09:03;4.37;;;2.60;;
9938;SDS011;5008;50.656;7.188;2023-02-25T21:11:31;3.70;;;2.83;;
9938;SDS011;5008;50.656;7.188;2023-02-25T21:13:59;3.53;;;2.70;;
9938;SDS011;5008;50.656;7.188;2023-02-25T21:16:26;7.30;;;3.20;;
9938;SDS011;5008;50.656;7.188;2023-02-25T21:18:53;2.70;;;2.50;;
9938;SDS011;5008;50.656;7.188;2023-02-25T21:21:22;4.47;;;2.80;;
9938;SDS011;5008;50.656;7.188;2023-02-25T21:23:50;3.60;;;2.47;;
9938;SDS011;5008;50.656;7.188;2023-02-25T21:26:18;4.00;;;2.50;;
9938;SDS011;5008;50.656;7.188;2023-02-25T21:28:45;4.80;;;2.60;;
9938;SDS011;5008;50.656;7.188;2023-02-25T21:31:14;3.17;;;2.50;;
9938;SDS011;5008;50.656;7.188;2023-02-25T21:33:43;3.00;;;2.63;;
9938;SDS011;5008;50.656;7.188;2023-02-25T21:36:10;3.50;;;2.90;;
9938;SDS011;5008;50.656;7.188;2023-02-25T21:38:37;4.43;;;2.80;;
9938;SDS011;5008;50.656;7.188;2023-02-25T21:41:05;3.60;;;2.70;;
9938;SDS011;5008;50.656;7.188;2023-02-25T21:43:35;4.27;;;3.00;;
9938;SDS011;5008;50.656;7.188;2023-02-25T21:46:03;4.73;;;3.13;;